Time;durP1;ratioP1;P1;durP2;ratioP2;P2;SDS_P1;SDS_P2;PMS_P1;PMS_P2;Temp;Humidity;BMP_temperature;BMP_pressure;BME280_temperature;BME280_humidity;BME280_pressure;Samples;Min_cycle;Max_cycle;Signal;HPM_P1;HPM_P2
2021/10/14 00:01:24;;;;;;;9.47;8.77;;;11.70;99.90;;;;;;5070894;28;20214;-66
2021/10/14 00:03:50;;;;;;;9.60;8.80;;;11.70;99.90;;;;;;5054185;28;20174;-66
2021/10/14 00:06:16;;;;;;;9.03;8.33;;;11.70;99.90;;;;;;5057909;28;20260;-66
2021/10/14 00:08:41;;;;;;;8.77;8.03;;;11.70;99.90;;;;;;5053508;28;20265;-65
2021/10/14 00:11:07;;;;;;;9.73;8.93;;;11.60;99.90;;;;;;5056044;28;20973;-65
2021/10/14 00:13:32;;;;;;;10.00;9.00;;;11.60;99.90;;;;;;5073866;28;20261;-66
2021/10/14 00:15:58;;;;;;;8.60;7.90;;;11.50;99.90;;;;;;5072301;28;20219;-66
2021/10/14 00:18:24;;;;;;;9.10;8.40;;;11.50;99.90;;;;;;5069137;28;20247;-65
2021/10/14 00:20:49;;;;;;;9.47;8.63;;;11.50;99.90;;;;;;5073112;28;20209;-65
2021/10/14 00:23:15;;;;;;;10.20;8.40;;;11.50;99.90;;;;;;5053913;28;20265;-66
2021/10/14 00:25:40;;;;;;;8.23;7.60;;;11.40;99.90;;;;;;5053894;28;20531;-66
2021/10/14 00:28:06;;;;;;;8.83;8.13;;;11.40;99.90;;;;;;5053790;28;20256;-66
2021/10/14 00:30:32;;;;;;;8.30;7.60;;;11.40;99.90;;;;;;5062052;28;20189;-65
2021/10/14 00:32:57;;;;;;;8.00;7.40;;;11.40;99.90;;;;;;5067627;28;20212;-65
2021/10/14 00:35:23;;;;;;;8.77;8.07;;;11.40;99.90;;;;;;5058102;28;20190;-66
2021/10/14 00:37:48;;;;;;;9.17;8.17;;;11.40;99.90;;;;;;5065810;28;20232;-66
2021/10/14 00:40:16;;;;;;;8.13;7.57;;;11.40;99.90;;;;;;5072966;28;20197;-65
2021/10/14 00:42:44;;;;;;;8.27;7.77;;;11.40;99.90;;;;;;5060928;28;20221;-66
2021/10/14 00:45:10;;;;;;;8.40;7.80;;;11.40;99.90;;;;;;5053163;28;20567;-66
2021/10/14 00:47:38;;;;;;;8.30;7.70;;;11.50;99.90;;;;;;5062175;28;20273;-64
2021/10/14 00:50:06;;;;;;;8.83;8.13;;;11.40;99.90;;;;;;5072775;28;20265;-66
2021/10/14 00:52:33;;;;;;;9.80;9.10;;;11.50;99.90;;;;;;5062354;28;20202;-64
2021/10/14 00:54:59;;;;;;;8.50;7.90;;;11.50;99.90;;;;;;5053447;28;20186;-65
2021/10/14 00:57:25;;;;;;;9.07;8.43;;;11.50;99.90;;;;;;5064200;28;20186;-66
2021/10/14 00:59:52;;;;;;;9.50;8.83;;;11.50;99.90;;;;;;5070996;28;20271;-66
2021/10/14 01:02:17;;;;;;;8.23;7.50;;;11.50;99.90;;;;;;5063774;28;20206;-66
2021/10/14 01:04:43;;;;;;;8.57;7.90;;;11.50;99.90;;;;;;5068241;28;20549;-66
2021/10/14 01:07:09;;;;;;;8.37;7.87;;;11.50;99.90;;;;;;5064885;28;20544;-66
2021/10/14 01:09:35;;;;;;;8.60;8.00;;;11.50;99.90;;;;;;5052524;28;20183;-66
2021/10/14 01:12:02;;;;;;;8.60;7.90;;;11.50;99.90;;;;;;5058489;28;20559;-64
2021/10/14 01:14:29;;;;;;;8.17;7.57;;;11.50;99.90;;;;;;5072737;28;20182;-66
2021/10/14 01:16:54;;;;;;;8.10;7.40;;;11.60;99.90;;;;;;5067161;28;20562;-66
2021/10/14 01:19:20;;;;;;;7.73;7.20;;;11.60;99.90;;;;;;5072294;28;20277;-66
2021/10/14 01:21:48;;;;;;;9.77;8.43;;;11.60;99.90;;;;;;5067847;28;20201;-66
2021/10/14 01:24:14;;;;;;;8.00;7.43;;;11.60;99.90;;;;;;5052493;28;20635;-65
2021/10/14 01:26:40;;;;;;;8.63;7.90;;;11.50;99.90;;;;;;5061179;28;20174;-65
2021/10/14 01:29:06;;;;;;;9.87;8.23;;;11.60;99.90;;;;;;5054673;28;20183;-66
2021/10/14 01:31:32;;;;;;;8.23;7.53;;;11.50;99.90;;;;;;5064364;28;20198;-65
2021/10/14 01:33:58;;;;;;;7.47;7.03;;;11.50;99.90;;;;;;5052888;28;20178;-65
2021/10/14 01:36:24;;;;;;;9.07;8.47;;;11.50;99.90;;;;;;5072184;28;20224;-66
2021/10/14 01:38:50;;;;;;;8.80;8.10;;;11.50;99.90;;;;;;5055480;28;20644;-65
2021/10/14 01:41:16;;;;;;;8.30;7.60;;;11.40;99.90;;;;;;5051710;28;20194;-65
2021/10/14 01:43:42;;;;;;;8.53;7.87;;;11.40;99.90;;;;;;5072104;28;20219;-65
2021/10/14 01:46:07;;;;;;;9.07;8.37;;;11.40;99.90;;;;;;5072015;28;20178;-65
2021/10/14 01:48:33;;;;;;;9.37;8.67;;;11.40;99.90;;;;;;5066958;28;20190;-66
2021/10/14 01:51:00;;;;;;;8.33;7.73;;;11.50;99.90;;;;;;5071285;28;20221;-66
2021/10/14 01:53:26;;;;;;;8.60;8.00;;;11.50;99.90;;;;;;5053859;28;20648;-66
2021/10/14 01:55:52;;;;;;;9.43;8.63;;;11.50;99.90;;;;;;5056885;28;20183;-65
2021/10/14 01:58:18;;;;;;;9.03;8.33;;;11.50;99.90;;;;;;5052996;28;20189;-66
2021/10/14 02:00:45;;;;;;;10.30;9.47;;;11.50;99.90;;;;;;5050613;28;20210;-66
2021/10/14 02:03:10;;;;;;;9.47;8.83;;;11.50;99.90;;;;;;5066361;28;20202;-66
2021/10/14 02:05:36;;;;;;;9.00;8.40;;;11.60;99.90;;;;;;5071813;28;20176;-66
2021/10/14 02:08:02;;;;;;;8.40;7.87;;;11.60;99.90;;;;;;5056383;28;20175;-66
2021/10/14 02:10:28;;;;;;;9.43;8.70;;;11.60;99.90;;;;;;5051442;28;20182;-65
2021/10/14 02:12:54;;;;;;;8.00;7.50;;;11.60;99.90;;;;;;5065242;28;20216;-66
2021/10/14 02:15:20;;;;;;;8.47;7.87;;;11.60;99.90;;;;;;5066574;28;20643;-66
2021/10/14 02:17:46;;;;;;;8.50;7.90;;;11.50;99.90;;;;;;5066446;28;20191;-66
2021/10/14 02:20:12;;;;;;;8.70;7.90;;;11.50;99.90;;;;;;5051114;28;20241;-66
2021/10/14 02:22:38;;;;;;;8.80;8.20;;;11.50;99.90;;;;;;5055182;28;20201;-66
2021/10/14 02:25:05;;;;;;;8.50;7.80;;;11.50;99.90;;;;;;5071440;28;20178;-66
2021/10/14 02:27:31;;;;;;;8.43;7.80;;;11.50;99.90;;;;;;5063612;28;20722;-66
2021/10/14 02:29:57;;;;;;;7.87;7.37;;;11.50;99.90;;;;;;5050994;28;20210;-66
2021/10/14 02:32:22;;;;;;;9.30;8.57;;;11.40;99.90;;;;;;5068274;28;20206;-66
2021/10/14 02:34:48;;;;;;;7.90;7.30;;;11.40;99.90;;;;;;5071272;28;20655;-66
2021/10/14 02:37:14;;;;;;;8.07;7.50;;;11.40;99.90;;;;;;5063618;28;20174;-66
2021/10/14 02:39:39;;;;;;;8.93;8.03;;;11.30;99.90;;;;;;5063962;28;20202;-66
2021/10/14 02:42:05;;;;;;;7.67;7.10;;;11.40;99.90;;;;;;5051138;28;20665;-65
2021/10/14 02:44:31;;;;;;;7.90;7.40;;;11.40;99.90;;;;;;5056154;28;20174;-66
2021/10/14 02:46:56;;;;;;;7.87;7.13;;;11.40;99.90;;;;;;5069657;28;20182;-66
2021/10/14 02:49:22;;;;;;;7.90;7.40;;;11.40;99.90;;;;;;5058133;28;20644;-66
2021/10/14 02:51:48;;;;;;;8.77;8.10;;;11.30;99.90;;;;;;5059522;28;20208;-66
2021/10/14 02:54:13;;;;;;;8.30;7.77;;;11.30;99.90;;;;;;5071315;28;20177;-66
2021/10/14 02:56:39;;;;;;;7.60;7.20;;;11.30;99.90;;;;;;5067138;28;20205;-66
2021/10/14 02:59:04;;;;;;;7.70;7.30;;;11.30;99.90;;;;;;5055789;28;20269;-66
2021/10/14 03:01:30;;;;;;;7.63;7.13;;;11.20;99.90;;;;;;5057141;28;20209;-66
2021/10/14 03:03:56;;;;;;;8.10;7.50;;;11.20;99.90;;;;;;5069459;28;20348;-65
2021/10/14 03:06:21;;;;;;;8.30;7.80;;;11.30;99.90;;;;;;5070399;28;20172;-66
2021/10/14 03:08:47;;;;;;;7.87;7.20;;;11.20;99.90;;;;;;5051029;28;20174;-65
2021/10/14 03:11:12;;;;;;;8.60;7.80;;;11.20;99.90;;;;;;5052819;28;20197;-65
2021/10/14 03:13:38;;;;;;;6.90;6.50;;;11.20;99.90;;;;;;5074673;28;20723;-65
2021/10/14 03:16:04;;;;;;;8.33;7.07;;;11.10;99.90;;;;;;5075395;28;20251;-65
2021/10/14 03:18:33;;;;;;;7.13;6.73;;;11.10;99.90;;;;;;5064298;28;20182;-65
2021/10/14 03:21:00;;;;;;;7.13;6.73;;;11.10;99.90;;;;;;5057808;28;20206;-66
2021/10/14 03:23:25;;;;;;;7.07;6.67;;;11.10;99.90;;;;;;5072677;28;20585;-66
2021/10/14 03:25:51;;;;;;;7.37;6.87;;;11.00;99.90;;;;;;5067795;28;20257;-66
2021/10/14 03:28:16;;;;;;;7.83;7.23;;;10.90;99.90;;;;;;5065328;28;20178;-65
2021/10/14 03:30:42;;;;;;;6.97;6.57;;;10.90;99.90;;;;;;5071090;28;20185;-67
2021/10/14 03:33:08;;;;;;;8.73;8.13;;;10.90;99.90;;;;;;5073220;28;20724;-66
2021/10/14 03:35:33;;;;;;;6.67;6.37;;;10.90;99.90;;;;;;5056012;28;20187;-66
2021/10/14 03:38:00;;;;;;;8.97;8.37;;;10.90;99.90;;;;;;5054512;28;20194;-67
2021/10/14 03:40:27;;;;;;;8.90;8.30;;;10.80;99.90;;;;;;5070822;28;20206;-66
2021/10/14 03:42:52;;;;;;;7.17;6.77;;;10.80;99.90;;;;;;5060627;28;20213;-65
2021/10/14 03:45:18;;;;;;;7.63;7.10;;;10.80;99.90;;;;;;5054580;28;20258;-66
2021/10/14 03:47:44;;;;;;;7.63;7.13;;;10.80;99.90;;;;;;5062445;28;20187;-66
2021/10/14 03:50:09;;;;;;;7.10;6.70;;;10.90;99.90;;;;;;5072452;28;20186;-66
2021/10/14 03:52:36;;;;;;;8.00;7.50;;;10.90;99.90;;;;;;5063002;28;20246;-66
2021/10/14 03:55:01;;;;;;;7.37;6.97;;;10.90;99.90;;;;;;5054072;28;20167;-66
2021/10/14 03:57:27;;;;;;;8.83;8.10;;;10.90;99.90;;;;;;5063540;28;20632;-65
2021/10/14 03:59:52;;;;;;;8.10;7.50;;;10.90;99.90;;;;;;5068945;28;20198;-66
2021/10/14 04:02:18;;;;;;;8.13;7.63;;;10.90;99.90;;;;;;5091593;22;20249;-64
2021/10/14 04:04:43;;;;;;;8.23;7.60;;;10.90;99.90;;;;;;5057256;28;20178;-64
2021/10/14 04:07:10;;;;;;;7.50;7.07;;;10.90;99.90;;;;;;5058250;28;20734;-65
2021/10/14 04:09:36;;;;;;;8.50;7.90;;;10.90;99.90;;;;;;5052519;28;20182;-64
2021/10/14 04:12:01;;;;;;;8.20;7.40;;;10.90;99.90;;;;;;5065421;28;20255;-64
2021/10/14 04:14:29;;;;;;;8.03;7.40;;;10.90;99.90;;;;;;5073911;28;20170;-65
2021/10/14 04:16:54;;;;;;;10.07;8.07;;;10.90;99.90;;;;;;5066032;28;20204;-65
2021/10/14 04:19:20;;;;;;;8.47;7.80;;;10.90;99.90;;;;;;5061284;28;20214;-65
2021/10/14 04:21:47;;;;;;;8.37;7.87;;;10.80;99.90;;;;;;5062435;28;20267;-65
2021/10/14 04:24:13;;;;;;;8.60;7.70;;;10.80;99.90;;;;;;5073084;28;20201;-65
2021/10/14 04:26:38;;;;;;;8.30;7.50;;;10.80;99.90;;;;;;5068848;28;20210;-65
2021/10/14 04:29:04;;;;;;;8.53;8.00;;;10.80;99.90;;;;;;5073111;28;20174;-65
2021/10/14 04:31:29;;;;;;;8.97;8.20;;;10.80;99.90;;;;;;5065242;28;20557;-65
2021/10/14 04:33:55;;;;;;;9.97;9.03;;;10.80;99.90;;;;;;5053426;28;20178;-65
2021/10/14 04:36:21;;;;;;;8.50;7.83;;;10.90;99.90;;;;;;5061052;28;20699;-65
2021/10/14 04:38:47;;;;;;;8.60;7.97;;;10.90;99.90;;;;;;5053538;28;20220;-65
2021/10/14 04:41:12;;;;;;;8.57;7.90;;;10.90;99.90;;;;;;5059700;28;20555;-65
2021/10/14 04:43:38;;;;;;;8.43;7.87;;;10.90;99.90;;;;;;5053788;28;20235;-65
2021/10/14 04:46:03;;;;;;;8.10;7.60;;;10.90;99.90;;;;;;5070900;28;20209;-65
2021/10/14 04:48:29;;;;;;;8.33;7.77;;;10.90;99.90;;;;;;5066836;28;20577;-65
2021/10/14 04:50:55;;;;;;;8.57;7.77;;;10.90;99.90;;;;;;5072566;28;20181;-65
2021/10/14 04:53:20;;;;;;;8.80;8.10;;;10.90;99.90;;;;;;5068369;28;20271;-65
2021/10/14 04:55:46;;;;;;;8.23;7.73;;;10.90;99.90;;;;;;5066011;28;20190;-65
2021/10/14 04:58:11;;;;;;;8.47;7.90;;;10.90;99.90;;;;;;5067190;28;20185;-65
2021/10/14 05:00:37;;;;;;;8.83;8.23;;;10.90;99.90;;;;;;5061023;28;20246;-65
2021/10/14 05:03:03;;;;;;;8.83;8.10;;;10.90;99.90;;;;;;5071088;28;20216;-65
2021/10/14 05:05:28;;;;;;;8.10;7.60;;;10.90;99.90;;;;;;5072414;28;20170;-65
2021/10/14 05:07:54;;;;;;;8.73;8.03;;;10.90;99.90;;;;;;5063560;28;20557;-65
2021/10/14 05:10:20;;;;;;;8.97;8.37;;;10.90;99.90;;;;;;5052520;28;20209;-65
2021/10/14 05:12:45;;;;;;;9.23;8.53;;;10.90;99.90;;;;;;5061698;28;20709;-65
2021/10/14 05:15:11;;;;;;;8.97;8.47;;;10.90;99.90;;;;;;5072524;28;20702;-65
2021/10/14 05:17:37;;;;;;;9.27;8.67;;;10.90;99.90;;;;;;5063693;28;20546;-65
2021/10/14 05:20:05;;;;;;;10.53;9.67;;;11.00;99.90;;;;;;5052830;28;20293;-65
2021/10/14 05:22:31;;;;;;;10.50;9.60;;;10.90;99.90;;;;;;5059479;28;20190;-65
2021/10/14 05:24:57;;;;;;;9.13;8.37;;;11.00;99.90;;;;;;5071807;28;20521;-65
2021/10/14 05:27:23;;;;;;;8.90;8.20;;;11.00;99.90;;;;;;5060880;28;20170;-65
2021/10/14 05:29:49;;;;;;;12.47;9.27;;;11.00;99.90;;;;;;5070688;28;20178;-65
2021/10/14 05:32:14;;;;;;;9.57;8.87;;;11.10;99.90;;;;;;5070547;28;20221;-65
2021/10/14 05:34:40;;;;;;;10.03;9.33;;;11.10;99.90;;;;;;5059169;28;20194;-65
2021/10/14 05:37:06;;;;;;;10.37;9.47;;;11.10;99.90;;;;;;5056393;28;20186;-65
2021/10/14 05:39:32;;;;;;;9.80;9.00;;;11.10;99.90;;;;;;5052008;28;20199;-65
2021/10/14 05:41:57;;;;;;;8.77;8.27;;;11.10;99.90;;;;;;5059816;28;20281;-65
2021/10/14 05:44:23;;;;;;;9.20;8.50;;;11.20;99.90;;;;;;5052063;28;20398;-65
2021/10/14 05:46:49;;;;;;;9.97;8.97;;;11.20;99.90;;;;;;5057466;28;20202;-65
2021/10/14 05:49:14;;;;;;;9.60;8.83;;;11.10;99.90;;;;;;5060634;28;20300;-65
2021/10/14 05:51:40;;;;;;;8.30;7.60;;;11.10;99.90;;;;;;5068203;28;20203;-65
2021/10/14 05:54:05;;;;;;;8.87;7.67;;;11.10;99.90;;;;;;5059273;28;20658;-65
2021/10/14 05:56:31;;;;;;;8.53;7.83;;;11.00;99.90;;;;;;5069427;28;20186;-65
2021/10/14 05:58:57;;;;;;;8.57;7.93;;;11.00;99.90;;;;;;5051380;28;20635;-65
2021/10/14 06:01:22;;;;;;;7.87;7.27;;;11.00;99.90;;;;;;5052358;28;20175;-65
2021/10/14 06:03:48;;;;;;;8.97;8.37;;;11.00;99.90;;;;;;5071694;28;20189;-65
2021/10/14 06:06:14;;;;;;;9.80;8.83;;;11.00;99.90;;;;;;5071447;28;20406;-65
2021/10/14 06:08:40;;;;;;;8.80;8.20;;;11.00;99.90;;;;;;5051892;28;20186;-65
2021/10/14 06:11:05;;;;;;;9.83;8.87;;;11.00;99.90;;;;;;5051088;28;20198;-65
2021/10/14 06:13:31;;;;;;;8.97;8.37;;;11.00;99.90;;;;;;5052595;28;20702;-66
2021/10/14 06:15:57;;;;;;;10.53;9.63;;;11.10;99.90;;;;;;5051408;28;20236;-65
2021/10/14 06:18:22;;;;;;;9.33;8.63;;;11.10;99.90;;;;;;5063805;28;20589;-65
2021/10/14 06:20:48;;;;;;;9.13;8.33;;;11.10;99.90;;;;;;5049643;28;20621;-65
2021/10/14 06:23:14;;;;;;;10.77;9.03;;;11.10;99.90;;;;;;5067571;28;20209;-65
2021/10/14 06:25:40;;;;;;;8.00;7.40;;;11.10;99.90;;;;;;5066478;28;20236;-65
2021/10/14 06:28:05;;;;;;;8.30;7.80;;;11.00;99.90;;;;;;5056704;28;20194;-66
2021/10/14 06:30:32;;;;;;;9.17;8.37;;;11.00;99.90;;;;;;5055796;28;20752;-65
2021/10/14 06:32:59;;;;;;;9.93;9.20;;;11.00;99.90;;;;;;5051002;28;20199;-65
2021/10/14 06:35:25;;;;;;;9.10;8.40;;;11.00;99.90;;;;;;5056280;28;20569;-65
2021/10/14 06:37:51;;;;;;;8.33;7.60;;;11.00;99.90;;;;;;5061166;28;20551;-65
2021/10/14 06:40:17;;;;;;;9.37;8.67;;;11.00;99.90;;;;;;5066749;28;20197;-65
2021/10/14 06:42:43;;;;;;;9.03;8.33;;;11.00;99.90;;;;;;5064126;28;20285;-65
2021/10/14 06:45:09;;;;;;;10.50;9.53;;;11.00;99.90;;;;;;5051482;28;20285;-66
2021/10/14 06:47:35;;;;;;;9.13;8.30;;;11.00;99.90;;;;;;5062729;28;20185;-66
2021/10/14 06:50:05;;;;;;;9.10;8.50;;;11.00;99.90;;;;;;5077433;28;20547;-66
2021/10/14 06:52:31;;;;;;;9.20;8.50;;;11.00;99.90;;;;;;5073432;28;20722;-66
2021/10/14 06:54:58;;;;;;;9.53;8.83;;;11.00;99.90;;;;;;5057496;28;20262;-66
2021/10/14 06:57:23;;;;;;;9.93;9.13;;;11.00;99.90;;;;;;5060071;28;20197;-65
2021/10/14 06:59:49;;;;;;;8.87;8.07;;;11.00;99.90;;;;;;5077170;28;20209;-65
2021/10/14 07:02:15;;;;;;;9.53;8.83;;;11.00;99.90;;;;;;5076494;28;20213;-65
2021/10/14 07:04:40;;;;;;;10.50;9.60;;;11.00;99.90;;;;;;5057671;28;20629;-65
2021/10/14 07:07:06;;;;;;;8.80;8.10;;;11.00;99.90;;;;;;5057280;28;20178;-65
2021/10/14 07:09:32;;;;;;;10.90;9.87;;;11.10;99.90;;;;;;5069417;28;20648;-65
2021/10/14 07:12:02;;;;;;;10.13;9.33;;;11.10;99.90;;;;;;5057335;28;20248;-65
2021/10/14 07:14:28;;;;;;;10.43;9.60;;;11.20;99.90;;;;;;5075586;28;20204;-65
2021/10/14 07:16:53;;;;;;;9.83;8.97;;;11.20;99.90;;;;;;5077317;28;20546;-65
2021/10/14 07:19:19;;;;;;;10.77;9.87;;;11.20;99.90;;;;;;5060679;28;20315;-65
2021/10/14 07:21:45;;;;;;;10.77;9.80;;;11.30;99.90;;;;;;5057374;28;20205;-65
2021/10/14 07:24:10;;;;;;;10.83;10.07;;;11.40;99.90;;;;;;5071774;28;20651;-65
2021/10/14 07:26:36;;;;;;;10.43;9.53;;;11.30;99.90;;;;;;5067062;28;20186;-65
2021/10/14 07:29:04;;;;;;;10.77;9.87;;;11.40;99.90;;;;;;5056799;28;20642;-65
2021/10/14 07:31:31;;;;;;;12.13;11.03;;;11.40;99.90;;;;;;5061960;28;20599;-65
2021/10/14 07:33:56;;;;;;;10.40;9.17;;;11.40;99.90;;;;;;5064490;28;20574;-65
2021/10/14 07:36:22;;;;;;;10.57;9.67;;;11.40;99.90;;;;;;5057616;28;20167;-65
2021/10/14 07:38:47;;;;;;;11.37;10.47;;;11.40;99.90;;;;;;5062729;28;20170;-65
2021/10/14 07:41:13;;;;;;;9.97;9.07;;;11.40;99.90;;;;;;5077176;28;20655;-65
2021/10/14 07:43:39;;;;;;;10.97;10.07;;;11.50;99.90;;;;;;5073093;28;20216;-66
2021/10/14 07:46:07;;;;;;;10.20;9.33;;;11.50;99.90;;;;;;5057184;28;20170;-65
2021/10/14 07:48:34;;;;;;;11.60;10.37;;;11.60;99.90;;;;;;5059789;28;20174;-65
2021/10/14 07:51:00;;;;;;;11.27;10.23;;;11.60;99.90;;;;;;5076697;28;20182;-65
2021/10/14 07:53:26;;;;;;;12.20;10.90;;;11.60;99.90;;;;;;5075876;28;20276;-65
2021/10/14 07:55:52;;;;;;;12.00;10.27;;;11.70;99.90;;;;;;5057051;28;20708;-65
2021/10/14 07:58:18;;;;;;;10.53;9.63;;;11.80;99.90;;;;;;5053350;28;20190;-65
2021/10/14 08:00:44;;;;;;;11.57;10.57;;;11.80;99.90;;;;;;5053773;28;20729;-65
2021/10/14 08:03:10;;;;;;;10.07;9.17;;;11.90;99.90;;;;;;5053559;28;20206;-66
2021/10/14 08:05:36;;;;;;;11.00;10.07;;;11.90;99.90;;;;;;5071761;28;20661;-65
2021/10/14 08:08:01;;;;;;;10.17;9.37;;;12.00;99.90;;;;;;5073935;28;20175;-65
2021/10/14 08:10:28;;;;;;;10.90;9.90;;;12.00;99.90;;;;;;5072178;28;20312;-65
2021/10/14 08:12:54;;;;;;;11.93;10.83;;;12.00;99.90;;;;;;5073346;28;20201;-65
2021/10/14 08:15:20;;;;;;;9.77;8.87;;;12.00;99.90;;;;;;5062621;28;20174;-66
2021/10/14 08:17:45;;;;;;;11.23;10.30;;;12.00;99.90;;;;;;5073660;28;20181;-65
2021/10/14 08:20:12;;;;;;;13.03;11.83;;;11.90;99.90;;;;;;5060154;28;20698;-66
2021/10/14 08:22:37;;;;;;;10.73;9.63;;;11.90;99.90;;;;;;5061970;28;20202;-65
2021/10/14 08:25:09;;;;;;;12.30;11.20;;;11.80;99.90;;;;;;5073285;28;20691;-65
2021/10/14 08:27:35;;;;;;;15.07;12.90;;;11.90;99.90;;;;;;5071859;28;20210;-66
2021/10/14 08:30:02;;;;;;;12.23;11.17;;;11.90;99.90;;;;;;5072896;28;20229;-65
2021/10/14 08:32:28;;;;;;;12.20;11.00;;;12.00;99.90;;;;;;5066961;28;20202;-65
2021/10/14 08:34:55;;;;;;;10.97;9.97;;;12.10;99.90;;;;;;5053113;28;20606;-65
2021/10/14 08:37:21;;;;;;;11.50;10.40;;;12.20;99.90;;;;;;5057706;28;20581;-65
2021/10/14 08:39:50;;;;;;;16.40;10.73;;;12.30;99.90;;;;;;5072922;28;20285;-65
2021/10/14 08:42:16;;;;;;;12.07;10.87;;;12.40;99.90;;;;;;5069419;28;20278;-66
2021/10/14 08:44:43;;;;;;;14.10;12.23;;;12.50;99.90;;;;;;5053272;28;20259;-65
2021/10/14 08:47:12;;;;;;;12.13;11.13;;;12.40;99.90;;;;;;5054422;28;20181;-65
2021/10/14 08:49:43;;;;;;;11.57;10.43;;;12.40;99.90;;;;;;5072152;28;20179;-65
2021/10/14 08:52:09;;;;;;;11.70;10.60;;;12.30;99.90;;;;;;5053716;28;20332;-66
2021/10/14 08:54:34;;;;;;;10.97;10.03;;;12.30;99.90;;;;;;5053096;28;20212;-65
2021/10/14 08:57:00;;;;;;;11.43;9.97;;;12.30;99.90;;;;;;5072592;28;20171;-66
2021/10/14 08:59:26;;;;;;;11.00;10.00;;;12.20;99.90;;;;;;5071303;28;20678;-65
2021/10/14 09:02:08;;;;;;;14.17;11.60;;;12.20;99.90;;;;;;5053874;28;20211;-65
2021/10/14 09:04:57;;;;;;;12.83;11.17;;;12.00;99.90;;;;;;5052890;28;20167;-66
2021/10/14 09:07:28;;;;;;;13.27;12.07;;;11.90;99.90;;;;;;5051620;28;20293;-67
2021/10/14 09:09:59;;;;;;;13.37;11.77;;;11.70;99.90;;;;;;5052739;28;20209;-65
2021/10/14 09:12:24;;;;;;;12.23;11.03;;;11.70;99.90;;;;;;5072612;28;20198;-65
2021/10/14 09:15:03;;;;;;;12.77;11.37;;;11.60;99.90;;;;;;5072167;28;20177;-66
2021/10/14 09:17:38;;;;;;;12.53;11.47;;;11.60;99.90;;;;;;5052615;28;20209;-65
2021/10/14 09:20:25;;;;;;;13.70;12.03;;;11.60;99.90;;;;;;5053159;28;20217;-65
2021/10/14 09:23:07;;;;;;;13.80;12.43;;;11.80;99.90;;;;;;5072263;28;20272;-65
2021/10/14 09:25:44;;;;;;;11.80;10.63;;;11.90;99.90;;;;;;5070676;28;20220;-65
2021/10/14 09:28:27;;;;;;;11.77;10.57;;;12.10;99.90;;;;;;5072206;28;20228;-66
2021/10/14 09:31:00;;;;;;;12.70;11.43;;;12.30;99.90;;;;;;5066522;28;20197;-65
2021/10/14 09:33:42;;;;;;;12.90;10.63;;;12.30;99.90;;;;;;5069249;28;20255;-66
2021/10/14 09:36:13;;;;;;;15.03;12.40;;;12.40;99.90;;;;;;5052005;28;20237;-66
2021/10/14 09:38:40;;;;;;;14.00;11.83;;;12.40;99.90;;;;;;5054719;28;20190;-66
2021/10/14 09:41:09;;;;;;;17.33;11.97;;;12.50;99.90;;;;;;5071517;28;20210;-66
2021/10/14 09:43:35;;;;;;;11.47;10.10;;;12.50;99.90;;;;;;5068872;28;20189;-65
2021/10/14 09:46:01;;;;;;;14.50;13.10;;;12.50;99.90;;;;;;5051767;28;20189;-66
2021/10/14 09:48:27;;;;;;;14.83;12.80;;;12.50;99.90;;;;;;5052876;28;20245;-66
2021/10/14 09:50:56;;;;;;;13.33;12.03;;;12.60;99.90;;;;;;5071385;28;20265;-66
2021/10/14 09:53:23;;;;;;;13.87;12.50;;;12.70;99.90;;;;;;5071602;28;20185;-66
2021/10/14 09:55:51;;;;;;;14.37;12.63;;;12.80;99.90;;;;;;5051746;28;20178;-66
2021/10/14 09:58:17;;;;;;;14.77;12.93;;;12.90;99.90;;;;;;5050543;28;20183;-66
2021/10/14 10:00:44;;;;;;;12.93;11.63;;;13.10;99.90;;;;;;5070081;28;20683;-66
2021/10/14 10:03:15;;;;;;;16.03;13.07;;;13.30;99.90;;;;;;5072005;28;20582;-67
2021/10/14 10:05:45;;;;;;;12.73;11.27;;;13.40;99.90;;;;;;5053551;28;20316;-66
2021/10/14 10:08:20;;;;;;;13.37;12.10;;;13.50;99.90;;;;;;5051506;28;20193;-66
2021/10/14 10:10:46;;;;;;;12.07;10.93;;;13.60;99.90;;;;;;5069285;28;20177;-66
2021/10/14 10:13:13;;;;;;;12.53;11.23;;;13.80;99.90;;;;;;5055778;28;20680;-66
2021/10/14 10:15:43;;;;;;;13.47;11.87;;;13.90;99.90;;;;;;5051610;28;20174;-66
2021/10/14 10:18:26;;;;;;;13.87;12.60;;;14.00;99.90;;;;;;5063969;28;20201;-66
2021/10/14 10:20:55;;;;;;;13.00;11.70;;;14.10;99.90;;;;;;5070286;28;20267;-66
2021/10/14 10:23:43;;;;;;;10.83;9.73;;;14.30;99.90;;;;;;5057346;28;20199;-67
2021/10/14 10:26:33;;;;;;;10.77;9.57;;;14.30;99.90;;;;;;5051238;28;20201;-67
2021/10/14 10:29:16;;;;;;;11.77;10.60;;;14.50;99.90;;;;;;5068095;28;20185;-67
2021/10/14 10:31:55;;;;;;;10.93;9.83;;;14.60;99.90;;;;;;5071300;28;20194;-67
2021/10/14 10:34:53;;;;;;;11.13;9.73;;;14.80;99.90;;;;;;5071152;28;20670;-67
2021/10/14 10:39:57;;;;;;;10.43;9.53;;;15.00;99.90;;;;;;5050643;28;20561;-67
2021/10/14 10:42:28;;;;;;;9.47;8.57;;;15.10;99.90;;;;;;5054871;28;20226;-66
2021/10/14 10:45:04;;;;;;;10.00;9.27;;;14.90;99.90;;;;;;5069665;28;20178;-67
2021/10/14 10:47:40;;;;;;;11.37;10.00;;;15.00;99.90;;;;;;5066797;28;20184;-67
2021/10/14 10:50:12;;;;;;;8.93;8.33;;;14.80;99.90;;;;;;5050740;28;20201;-67
2021/10/14 10:52:40;;;;;;;9.47;8.77;;;14.70;99.90;;;;;;5055524;28;20220;-67
2021/10/14 10:55:25;;;;;;;10.10;9.30;;;14.60;99.90;;;;;;5070975;28;20220;-67
2021/10/14 10:57:52;;;;;;;8.73;8.07;;;14.50;99.90;;;;;;5064414;28;20194;-67
2021/10/14 11:00:20;;;;;;;8.67;7.97;;;14.50;99.90;;;;;;5050710;28;20204;-67
2021/10/14 11:03:05;;;;;;;10.00;9.00;;;14.40;99.90;;;;;;5055350;28;20210;-67
2021/10/14 11:05:40;;;;;;;23.30;13.10;;;14.30;99.90;;;;;;5070262;28;20601;-67
2021/10/14 11:08:07;;;;;;;9.00;8.27;;;14.40;99.90;;;;;;5063518;28;20191;-67
2021/10/14 11:10:32;;;;;;;10.30;9.50;;;14.30;99.90;;;;;;5052984;28;20233;-67
2021/10/14 11:13:01;;;;;;;9.33;8.63;;;14.30;99.90;;;;;;5070269;28;20198;-67
2021/10/14 11:15:27;;;;;;;7.93;7.43;;;14.30;99.90;;;;;;5069376;28;20178;-67
2021/10/14 11:18:04;;;;;;;8.37;7.67;;;14.20;99.90;;;;;;5050710;28;20194;-66
2021/10/14 11:20:31;;;;;;;9.10;8.30;;;14.20;99.90;;;;;;5051383;28;20206;-66
2021/10/14 11:23:08;;;;;;;8.93;7.97;;;14.20;99.90;;;;;;5070485;28;20239;-67
2021/10/14 11:25:35;;;;;;;9.43;8.73;;;14.20;99.90;;;;;;5069730;28;20197;-67
2021/10/14 11:28:02;;;;;;;8.23;7.60;;;14.20;99.90;;;;;;5050437;28;20199;-67
2021/10/14 11:30:41;;;;;;;8.13;7.50;;;14.30;99.90;;;;;;5050540;28;20228;-66
2021/10/14 11:33:32;;;;;;;8.13;7.50;;;14.40;99.90;;;;;;5053416;28;20572;-66
2021/10/14 11:36:03;;;;;;;7.60;7.00;;;14.30;99.90;;;;;;5066959;28;20675;-66
2021/10/14 11:38:29;;;;;;;8.63;7.80;;;14.30;99.90;;;;;;5053148;28;20186;-66
2021/10/14 11:40:56;;;;;;;8.27;7.47;;;14.40;99.90;;;;;;5054088;28;20256;-66
2021/10/14 11:43:31;;;;;;;8.90;8.10;;;14.40;99.90;;;;;;5074150;28;20566;-67
2021/10/14 11:45:58;;;;;;;8.47;7.77;;;14.40;99.90;;;;;;5073875;28;20304;-66
2021/10/14 11:48:34;;;;;;;8.00;7.50;;;14.50;99.90;;;;;;5054253;28;20171;-66
2021/10/14 11:51:08;;;;;;;8.03;7.47;;;14.70;99.90;;;;;;5061565;28;20473;-66
2021/10/14 11:53:35;;;;;;;8.57;7.87;;;14.80;99.90;;;;;;5072918;28;20192;-66
2021/10/14 11:56:06;;;;;;;8.63;8.03;;;15.00;99.90;;;;;;5066027;28;20206;-66
2021/10/14 11:58:33;;;;;;;7.33;6.77;;;15.20;99.90;;;;;;5054933;28;20648;-66
2021/10/14 12:01:03;;;;;;;8.20;7.40;;;15.20;99.90;;;;;;5060771;28;20237;-66
2021/10/14 12:03:29;;;;;;;8.27;7.67;;;15.30;99.90;;;;;;5072743;28;20694;-66
2021/10/14 12:05:55;;;;;;;7.30;6.80;;;15.40;99.90;;;;;;5061422;28;20713;-66
2021/10/14 12:08:21;;;;;;;7.97;7.33;;;15.50;99.90;;;;;;5054054;28;20179;-66
2021/10/14 12:10:52;;;;;;;7.43;6.73;;;15.60;99.90;;;;;;5063800;28;20182;-66
2021/10/14 12:13:24;;;;;;;7.87;7.27;;;15.70;99.90;;;;;;5074026;28;20289;-66
2021/10/14 12:15:50;;;;;;;7.60;7.00;;;15.80;99.90;;;;;;5063106;28;20273;-66
2021/10/14 12:18:29;;;;;;;6.80;6.23;;;15.90;99.90;;;;;;5052536;28;20257;-66
2021/10/14 12:20:54;;;;;;;7.47;6.77;;;16.00;99.90;;;;;;5062442;28;20271;-66
2021/10/14 12:23:30;;;;;;;8.13;7.50;;;16.20;99.90;;;;;;5073251;28;20194;-66
2021/10/14 12:26:12;;;;;;;7.73;7.20;;;16.40;99.90;;;;;;5071681;28;20202;-66
2021/10/14 12:28:41;;;;;;;7.60;6.97;;;16.60;99.90;;;;;;5073435;28;20197;-66
2021/10/14 12:31:09;;;;;;;7.47;6.87;;;16.60;99.90;;;;;;5061061;28;20186;-66
2021/10/14 12:33:35;;;;;;;7.40;6.90;;;16.70;99.90;;;;;;5060035;28;20609;-66
2021/10/14 12:36:01;;;;;;;7.63;7.00;;;16.60;99.90;;;;;;5072692;28;20170;-66
2021/10/14 12:38:39;;;;;;;7.30;6.80;;;16.60;99.90;;;;;;5071682;28;20183;-66
2021/10/14 12:41:08;;;;;;;7.67;7.00;;;16.50;99.90;;;;;;5072323;28;20197;-66
2021/10/14 12:43:46;;;;;;;8.57;6.63;;;16.30;99.90;;;;;;5066327;28;20170;-66
2021/10/14 12:51:47;;;;;;;7.40;6.80;;;16.80;99.90;;;;;;5052859;28;20560;-65